sensor_id;sensor_type;location;lat;lon;timestamp;temperature;humidity
71142;DHT22;58808;59.366;17.970;2024-02-14T00:02:11;-3.40;99.90
71142;DHT22;58808;59.366;17.970;2024-02-14T00:04:37;-3.60;99.90
71142;DHT22;58808;59.366;17.970;2024-02-14T00:07:04;-3.60;99.90
71142;DHT22;58808;59.366;17.970;2024-02-14T00:09:30;-3.50;99.90
71142;DHT22;58808;59.366;17.970;2024-02-14T00:11:56;-3.60;99.90
71142;DHT22;58808;59.366;17.970;2024-02-14T00:14:22;-3.60;99.90
71142;DHT22;58808;59.366;17.970;2024-02-14T00:16:47;-3.70;99.90
71142;DHT22;58808;59.366;17.970;2024-02-14T00:19:13;-3.70;99.90
71142;DHT22;58808;59.366;17.970;2024-02-14T00:21:39;-3.60;99.90
71142;DHT22;58808;59.366;17.970;2024-02-14T00:24:05;-3.70;99.90
71142;DHT22;58808;59.366;17.970;2024-02-14T00:26:31;-3.80;99.90
71142;DHT22;58808;59.366;17.970;2024-02-14T00:28:57;-3.80;99.90
71142;DHT22;58808;59.366;17.970;2024-02-14T00:31:23;-4.00;99.90
71142;DHT22;58808;59.366;17.970;2024-02-14T00:33:48;-4.00;99.90
71142;DHT22;58808;59.366;17.970;2024-02-14T00:36:14;-3.90;99.90
71142;DHT22;58808;59.366;17.970;2024-02-14T00:38:40;-3.80;99.90
71142;DHT22;58808;59.366;17.970;2024-02-14T00:41:06;-3.80;99.90
71142;DHT22;58808;59.366;17.970;2024-02-14T00:43:31;-3.90;99.90
71142;DHT22;58808;59.366;17.970;2024-02-14T00:45:57;-3.90;99.90
71142;DHT22;58808;59.366;17.970;2024-02-14T00:48:23;-3.90;99.90
71142;DHT22;58808;59.366;17.970;2024-02-14T00:50:49;-4.00;99.90
71142;DHT22;58808;59.366;17.970;2024-02-14T00:53:15;-4.00;99.90
71142;DHT22;58808;59.366;17.970;2024-02-14T00:55:40;-4.00;99.90
71142;DHT22;58808;59.366;17.970;2024-02-14T00:58:06;-4.00;99.90
71142;DHT22;58808;59.366;17.970;2024-02-14T01:00:32;-4.00;99.90
71142;DHT22;58808;59.366;17.970;2024-02-14T01:02:58;-3.90;99.90
71142;DHT22;58808;59.366;17.970;2024-02-14T01:05:24;-4.10;99.90
71142;DHT22;58808;59.366;17.970;2024-02-14T01:07:51;-4.10;99.90
71142;DHT22;58808;59.366;17.970;2024-02-14T01:10:19;-4.00;99.90
71142;DHT22;58808;59.366;17.970;2024-02-14T01:12:44;-4.20;99.90
71142;DHT22;58808;59.366;17.970;2024-02-14T01:15:10;-4.20;99.90
71142;DHT22;58808;59.366;17.970;2024-02-14T01:17:36;-4.10;99.90
71142;DHT22;58808;59.366;17.970;2024-02-14T01:20:02;-4.10;99.90
71142;DHT22;58808;59.366;17.970;2024-02-14T01:22:28;-4.10;99.90
71142;DHT22;58808;59.366;17.970;2024-02-14T01:24:54;-4.20;99.90
71142;DHT22;58808;59.366;17.970;2024-02-14T01:27:20;-4.10;99.90
71142;DHT22;58808;59.366;17.970;2024-02-14T01:29:48;-4.10;99.90
71142;DHT22;58808;59.366;17.970;2024-02-14T01:32:14;-4.20;99.90
71142;DHT22;58808;59.366;17.970;2024-02-14T01:34:40;-4.10;99.90
71142;DHT22;58808;59.366;17.970;2024-02-14T01:37:08;-4.00;99.90
71142;DHT22;58808;59.366;17.970;2024-02-14T01:39:35;-4.10;99.90
71142;DHT22;58808;59.366;17.970;2024-02-14T01:42:01;-4.00;99.90
71142;DHT22;58808;59.366;17.970;2024-02-14T01:44:32;-3.80;99.90
71142;DHT22;58808;59.366;17.970;2024-02-14T01:46:59;-3.80;99.90
71142;DHT22;58808;59.366;17.970;2024-02-14T01:49:25;-3.90;99.90
71142;DHT22;58808;59.366;17.970;2024-02-14T01:51:55;-3.90;99.90
71142;DHT22;58808;59.366;17.970;2024-02-14T01:54:25;-3.90;99.90
71142;DHT22;58808;59.366;17.970;2024-02-14T01:56:51;-3.90;99.90
71142;DHT22;58808;59.366;17.970;2024-02-14T01:59:17;-4.00;99.90
71142;DHT22;58808;59.366;17.970;2024-02-14T02:01:43;-3.90;99.90
71142;DHT22;58808;59.366;17.970;2024-02-14T02:04:09;-4.10;99.90
71142;DHT22;58808;59.366;17.970;2024-02-14T02:06:36;-4.00;99.90
71142;DHT22;58808;59.366;17.970;2024-02-14T02:09:02;-4.00;99.90
71142;DHT22;58808;59.366;17.970;2024-02-14T02:11:29;-4.00;99.90
71142;DHT22;58808;59.366;17.970;2024-02-14T02:13:55;-4.00;99.90
71142;DHT22;58808;59.366;17.970;2024-02-14T02:16:21;-4.00;99.90
71142;DHT22;58808;59.366;17.970;2024-02-14T02:18:47;-4.00;99.90
71142;DHT22;58808;59.366;17.970;2024-02-14T02:21:14;-4.00;99.90
71142;DHT22;58808;59.366;17.970;2024-02-14T02:23:40;-3.90;99.90
71142;DHT22;58808;59.366;17.970;2024-02-14T02:26:09;-3.80;99.90
71142;DHT22;58808;59.366;17.970;2024-02-14T02:28:36;-3.90;99.90
71142;DHT22;58808;59.366;17.970;2024-02-14T02:31:02;-3.80;99.90
71142;DHT22;58808;59.366;17.970;2024-02-14T02:33:28;-3.90;99.90
71142;DHT22;58808;59.366;17.970;2024-02-14T02:35:53;-3.80;99.90
71142;DHT22;58808;59.366;17.970;2024-02-14T02:38:19;-3.80;99.90
71142;DHT22;58808;59.366;17.970;2024-02-14T02:40:47;-3.80;99.90
71142;DHT22;58808;59.366;17.970;2024-02-14T02:43:13;-3.80;99.90
71142;DHT22;58808;59.366;17.970;2024-02-14T02:45:38;-3.70;99.90
71142;DHT22;58808;59.366;17.970;2024-02-14T02:48:04;-3.90;99.90
71142;DHT22;58808;59.366;17.970;2024-02-14T02:50:30;-3.80;99.90
71142;DHT22;58808;59.366;17.970;2024-02-14T02:52:56;-3.80;99.90
71142;DHT22;58808;59.366;17.970;2024-02-14T02:55:22;-3.80;99.90
71142;DHT22;58808;59.366;17.970;2024-02-14T02:57:48;-3.80;99.90
71142;DHT22;58808;59.366;17.970;2024-02-14T03:00:14;-3.90;99.90
71142;DHT22;58808;59.366;17.970;2024-02-14T03:02:41;-3.80;99.90
71142;DHT22;58808;59.366;17.970;2024-02-14T03:05:10;-3.90;99.90
71142;DHT22;58808;59.366;17.970;2024-02-14T03:07:36;-3.90;99.90
71142;DHT22;58808;59.366;17.970;2024-02-14T03:10:03;-3.70;99.90
71142;DHT22;58808;59.366;17.970;2024-02-14T03:12:29;-3.80;99.90
71142;DHT22;58808;59.366;17.970;2024-02-14T03:14:57;-3.70;99.90
71142;DHT22;58808;59.366;17.970;2024-02-14T03:17:23;-3.90;99.90
71142;DHT22;58808;59.366;17.970;2024-02-14T03:19:49;-3.80;99.90
71142;DHT22;58808;59.366;17.970;2024-02-14T03:22:17;-3.70;99.90
71142;DHT22;58808;59.366;17.970;2024-02-14T03:24:44;-3.80;99.90
71142;DHT22;58808;59.366;17.970;2024-02-14T03:27:12;-3.70;99.90
71142;DHT22;58808;59.366;17.970;2024-02-14T03:29:38;-3.60;99.90
71142;DHT22;58808;59.366;17.970;2024-02-14T03:32:05;-3.60;99.90
71142;DHT22;58808;59.366;17.970;2024-02-14T03:34:31;-3.80;99.90
71142;DHT22;58808;59.366;17.970;2024-02-14T03:37:01;-3.80;99.90
71142;DHT22;58808;59.366;17.970;2024-02-14T03:39:32;-3.80;99.90
71142;DHT22;58808;59.366;17.970;2024-02-14T03:41:58;-3.70;99.90
71142;DHT22;58808;59.366;17.970;2024-02-14T03:44:26;-3.50;99.90
71142;DHT22;58808;59.366;17.970;2024-02-14T03:46:53;-3.60;99.90
71142;DHT22;58808;59.366;17.970;2024-02-14T03:49:19;-3.60;99.90
71142;DHT22;58808;59.366;17.970;2024-02-14T03:51:45;-3.40;99.90
71142;DHT22;58808;59.366;17.970;2024-02-14T03:54:11;-3.50;99.90
71142;DHT22;58808;59.366;17.970;2024-02-14T03:56:37;-3.50;99.90
71142;DHT22;58808;59.366;17.970;2024-02-14T03:59:03;-3.40;99.90
71142;DHT22;58808;59.366;17.970;2024-02-14T04:01:31;-3.50;99.90
71142;DHT22;58808;59.366;17.970;2024-02-14T04:03:56;-3.40;99.90
71142;DHT22;58808;59.366;17.970;2024-02-14T04:06:22;-3.40;99.90
71142;DHT22;58808;59.366;17.970;2024-02-14T04:08:48;-3.40;99.90
71142;DHT22;58808;59.366;17.970;2024-02-14T04:11:14;-3.50;99.90
71142;DHT22;58808;59.366;17.970;2024-02-14T04:13:40;-3.40;99.90
71142;DHT22;58808;59.366;17.970;2024-02-14T04:16:06;-3.30;99.90
71142;DHT22;58808;59.366;17.970;2024-02-14T04:18:32;-3.40;99.90
71142;DHT22;58808;59.366;17.970;2024-02-14T04:20:58;-3.20;99.90
71142;DHT22;58808;59.366;17.970;2024-02-14T04:23:24;-3.20;99.90
71142;DHT22;58808;59.366;17.970;2024-02-14T04:25:50;-3.30;99.90
71142;DHT22;58808;59.366;17.970;2024-02-14T04:28:16;-3.20;99.90
71142;DHT22;58808;59.366;17.970;2024-02-14T04:30:42;-3.20;99.90
71142;DHT22;58808;59.366;17.970;2024-02-14T04:33:08;-3.20;99.90
71142;DHT22;58808;59.366;17.970;2024-02-14T04:35:34;-3.20;99.90
71142;DHT22;58808;59.366;17.970;2024-02-14T04:38:00;-3.10;99.90
71142;DHT22;58808;59.366;17.970;2024-02-14T04:40:26;-3.10;99.90
71142;DHT22;58808;59.366;17.970;2024-02-14T04:42:52;-3.10;99.90
71142;DHT22;58808;59.366;17.970;2024-02-14T04:45:18;-3.20;99.90
71142;DHT22;58808;59.366;17.970;2024-02-14T04:47:43;-3.00;99.90
71142;DHT22;58808;59.366;17.970;2024-02-14T04:50:09;-3.10;99.90
71142;DHT22;58808;59.366;17.970;2024-02-14T04:52:35;-3.10;99.90
71142;DHT22;58808;59.366;17.970;2024-02-14T04:55:01;-3.00;99.90
71142;DHT22;58808;59.366;17.970;2024-02-14T04:57:26;-3.00;99.90
71142;DHT22;58808;59.366;17.970;2024-02-14T04:59:52;-3.10;99.90
71142;DHT22;58808;59.366;17.970;2024-02-14T05:02:18;-3.10;99.90
71142;DHT22;58808;59.366;17.970;2024-02-14T05:04:44;-3.10;99.90
71142;DHT22;58808;59.366;17.970;2024-02-14T05:07:09;-3.10;99.90
71142;DHT22;58808;59.366;17.970;2024-02-14T05:09:35;-2.90;99.90
71142;DHT22;58808;59.366;17.970;2024-02-14T05:12:00;-2.90;99.90
71142;DHT22;58808;59.366;17.970;2024-02-14T05:14:27;-3.10;99.90
71142;DHT22;58808;59.366;17.970;2024-02-14T05:16:56;-3.00;99.90
71142;DHT22;58808;59.366;17.970;2024-02-14T05:19:22;-2.80;99.90
71142;DHT22;58808;59.366;17.970;2024-02-14T05:21:48;-2.80;99.90
71142;DHT22;58808;59.366;17.970;2024-02-14T05:24:14;-2.90;99.90
71142;DHT22;58808;59.366;17.970;2024-02-14T05:26:40;-2.80;99.90
71142;DHT22;58808;59.366;17.970;2024-02-14T05:29:05;-2.90;99.90
71142;DHT22;58808;59.366;17.970;2024-02-14T05:31:46;-2.90;99.90
71142;DHT22;58808;59.366;17.970;2024-02-14T05:34:12;-2.80;99.90
71142;DHT22;58808;59.366;17.970;2024-02-14T05:36:38;-2.80;99.90
71142;DHT22;58808;59.366;17.970;2024-02-14T05:39:04;-2.70;99.90
71142;DHT22;58808;59.366;17.970;2024-02-14T05:41:31;-2.80;99.90
71142;DHT22;58808;59.366;17.970;2024-02-14T05:43:58;-2.80;99.90
71142;DHT22;58808;59.366;17.970;2024-02-14T05:46:24;-2.70;99.90
71142;DHT22;58808;59.366;17.970;2024-02-14T05:48:50;-2.60;99.90
71142;DHT22;58808;59.366;17.970;2024-02-14T05:51:18;-2.70;99.90
71142;DHT22;58808;59.366;17.970;2024-02-14T05:53:44;-2.70;99.90
71142;DHT22;58808;59.366;17.970;2024-02-14T05:56:10;-2.60;99.90
71142;DHT22;58808;59.366;17.970;2024-02-14T05:58:35;-2.50;99.90
71142;DHT22;58808;59.366;17.970;2024-02-14T06:01:01;-2.60;99.90
71142;DHT22;58808;59.366;17.970;2024-02-14T06:03:27;-2.60;99.90
71142;DHT22;58808;59.366;17.970;2024-02-14T06:05:53;-2.60;99.90
71142;DHT22;58808;59.366;17.970;2024-02-14T06:08:19;-2.50;99.90
71142;DHT22;58808;59.366;17.970;2024-02-14T06:10:44;-2.50;99.90
71142;DHT22;58808;59.366;17.970;2024-02-14T06:13:10;-2.40;99.90
71142;DHT22;58808;59.366;17.970;2024-02-14T06:15:36;-2.40;99.90
71142;DHT22;58808;59.366;17.970;2024-02-14T06:18:02;-2.50;99.90
71142;DHT22;58808;59.366;17.970;2024-02-14T06:20:27;-2.50;99.90
71142;DHT22;58808;59.366;17.970;2024-02-14T06:22:53;-2.40;99.90
71142;DHT22;58808;59.366;17.970;2024-02-14T06:25:20;-2.40;99.90
71142;DHT22;58808;59.366;17.970;2024-02-14T06:27:46;-2.50;99.90
71142;DHT22;58808;59.366;17.970;2024-02-14T06:30:12;-2.50;99.90
71142;DHT22;58808;59.366;17.970;2024-02-14T06:32:37;-2.40;99.90
71142;DHT22;58808;59.366;17.970;2024-02-14T06:35:03;-2.30;99.90
71142;DHT22;58808;59.366;17.970;2024-02-14T06:37:29;-2.40;99.90
71142;DHT22;58808;59.366;17.970;2024-02-14T06:39:55;-2.40;99.90
71142;DHT22;58808;59.366;17.970;2024-02-14T06:42:20;-2.40;99.90
71142;DHT22;58808;59.366;17.970;2024-02-14T06:44:46;-2.40;99.90
71142;DHT22;58808;59.366;17.970;2024-02-14T06:47:12;-2.20;99.90
71142;DHT22;58808;59.366;17.970;2024-02-14T06:49:38;-2.30;99.90
71142;DHT22;58808;59.366;17.970;2024-02-14T06:52:04;-2.20;99.90
71142;DHT22;58808;59.366;17.970;2024-02-14T06:54:30;-2.20;99.90
71142;DHT22;58808;59.366;17.970;2024-02-14T06:56:55;-2.30;99.90
71142;DHT22;58808;59.366;17.970;2024-02-14T06:59:21;-2.10;99.90
71142;DHT22;58808;59.366;17.970;2024-02-14T07:01:47;-2.10;99.90
71142;DHT22;58808;59.366;17.970;2024-02-14T07:04:12;-2.10;99.90
71142;DHT22;58808;59.366;17.970;2024-02-14T07:06:38;-2.20;99.90
71142;DHT22;58808;59.366;17.970;2024-02-14T07:09:04;-2.20;99.90
71142;DHT22;58808;59.366;17.970;2024-02-14T07:11:30;-2.00;99.90
71142;DHT22;58808;59.366;17.970;2024-02-14T07:13:56;-2.10;99.90
71142;DHT22;58808;59.366;17.970;2024-02-14T07:16:21;-2.10;99.90
71142;DHT22;58808;59.366;17.970;2024-02-14T07:18:49;-2.10;99.90
71142;DHT22;58808;59.366;17.970;2024-02-14T07:21:14;-2.10;99.90
71142;DHT22;58808;59.366;17.970;2024-02-14T07:23:40;-2.00;99.90
71142;DHT22;58808;59.366;17.970;2024-02-14T07:26:06;-1.90;99.90
71142;DHT22;58808;59.366;17.970;2024-02-14T07:28:31;-1.90;99.90
71142;DHT22;58808;59.366;17.970;2024-02-14T07:30:57;-1.90;99.90
71142;DHT22;58808;59.366;17.970;2024-02-14T07:33:23;-1.80;99.90
71142;DHT22;58808;59.366;17.970;2024-02-14T07:35:49;-1.80;99.90
71142;DHT22;58808;59.366;17.970;2024-02-14T07:38:15;-1.90;99.90
71142;DHT22;58808;59.366;17.970;2024-02-14T07:40:42;-1.80;99.90
71142;DHT22;58808;59.366;17.970;2024-02-14T07:43:07;-1.90;99.90
71142;DHT22;58808;59.366;17.970;2024-02-14T07:45:33;-1.80;99.90
71142;DHT22;58808;59.366;17.970;2024-02-14T07:47:59;-1.90;99.90
71142;DHT22;58808;59.366;17.970;2024-02-14T07:50:24;-1.70;99.90
71142;DHT22;58808;59.366;17.970;2024-02-14T07:52:50;-1.70;99.90
71142;DHT22;58808;59.366;17.970;2024-02-14T07:55:16;-1.80;99.90
71142;DHT22;58808;59.366;17.970;2024-02-14T07:57:42;-1.70;99.90
71142;DHT22;58808;59.366;17.970;2024-02-14T08:00:08;-1.70;99.90
71142;DHT22;58808;59.366;17.970;2024-02-14T08:02:35;-1.80;99.90
71142;DHT22;58808;59.366;17.970;2024-02-14T08:05:02;-1.80;99.90
71142;DHT22;58808;59.366;17.970;2024-02-14T08:07:27;-1.80;99.90
71142;DHT22;58808;59.366;17.970;2024-02-14T08:09:54;-1.70;99.90
71142;DHT22;58808;59.366;17.970;2024-02-14T08:12:20;-1.60;99.90
71142;DHT22;58808;59.366;17.970;2024-02-14T08:14:47;-1.70;99.90
71142;DHT22;58808;59.366;17.970;2024-02-14T08:17:13;-1.50;99.90
71142;DHT22;58808;59.366;17.970;2024-02-14T08:19:38;-1.60;99.90
71142;DHT22;58808;59.366;17.970;2024-02-14T08:22:05;-1.70;99.90
71142;DHT22;58808;59.366;17.970;2024-02-14T08:24:31;-1.50;99.90
71142;DHT22;58808;59.366;17.970;2024-02-14T08:26:57;-1.50;99.90
71142;DHT22;58808;59.366;17.970;2024-02-14T08:29:23;-1.60;99.90
71142;DHT22;58808;59.366;17.970;2024-02-14T08:31:49;-1.40;99.90
71142;DHT22;58808;59.366;17.970;2024-02-14T08:34:15;-1.50;99.90
71142;DHT22;58808;59.366;17.970;2024-02-14T08:36:42;-1.60;99.90
71142;DHT22;58808;59.366;17.970;2024-02-14T08:39:08;-1.40;99.90
71142;DHT22;58808;59.366;17.970;2024-02-14T08:41:39;-1.40;99.90
71142;DHT22;58808;59.366;17.970;2024-02-14T08:44:06;-1.40;99.90
71142;DHT22;58808;59.366;17.970;2024-02-14T08:46:32;-1.30;99.90
71142;DHT22;58808;59.366;17.970;2024-02-14T08:49:00;-1.30;99.90
71142;DHT22;58808;59.366;17.970;2024-02-14T08:51:28;-1.30;99.90
71142;DHT22;58808;59.366;17.970;2024-02-14T08:53:54;-1.40;99.90
71142;DHT22;58808;59.366;17.970;2024-02-14T08:56:22;-1.40;99.90
71142;DHT22;58808;59.366;17.970;2024-02-14T08:58:48;-1.30;99.90
71142;DHT22;58808;59.366;17.970;2024-02-14T09:01:14;-1.10;99.90
71142;DHT22;58808;59.366;17.970;2024-02-14T09:03:44;-1.30;99.90
71142;DHT22;58808;59.366;17.970;2024-02-14T09:06:13;-1.20;99.90
71142;DHT22;58808;59.366;17.970;2024-02-14T09:08:40;-1.10;99.90
71142;DHT22;58808;59.366;17.970;2024-02-14T09:11:06;-1.30;99.90
71142;DHT22;58808;59.366;17.970;2024-02-14T09:13:31;-1.00;99.90
71142;DHT22;58808;59.366;17.970;2024-02-14T09:15:57;-1.00;99.90
71142;DHT22;58808;59.366;17.970;2024-02-14T09:18:23;-1.00;99.90
71142;DHT22;58808;59.366;17.970;2024-02-14T09:20:49;-1.00;99.90
71142;DHT22;58808;59.366;17.970;2024-02-14T09:23:16;-1.00;99.90
71142;DHT22;58808;59.366;17.970;2024-02-14T09:25:46;-1.00;99.90
71142;DHT22;58808;59.366;17.970;2024-02-14T09:28:12;-1.00;99.90
71142;DHT22;58808;59.366;17.970;2024-02-14T09:30:39;-0.90;99.90
71142;DHT22;58808;59.366;17.970;2024-02-14T09:33:05;-0.90;99.90
71142;DHT22;58808;59.366;17.970;2024-02-14T09:35:31;-0.80;99.90
71142;DHT22;58808;59.366;17.970;2024-02-14T09:37:56;-0.80;99.90
71142;DHT22;58808;59.366;17.970;2024-02-14T09:40:22;-0.80;99.90
71142;DHT22;58808;59.366;17.970;2024-02-14T09:42:56;-0.90;99.90
71142;DHT22;58808;59.366;17.970;2024-02-14T09:45:26;-0.80;99.90
71142;DHT22;58808;59.366;17.970;2024-02-14T09:47:52;-0.90;99.90
71142;DHT22;58808;59.366;17.970;2024-02-14T09:50:19;-0.90;99.90
71142;DHT22;58808;59.366;17.970;2024-02-14T09:52:47;-0.80;99.90
71142;DHT22;58808;59.366;17.970;2024-02-14T09:55:15;-0.70;99.90
71142;DHT22;58808;59.366;17.970;2024-02-14T09:57:42;-0.70;99.90
71142;DHT22;58808;59.366;17.970;2024-02-14T10:00:11;-0.80;99.90
71142;DHT22;58808;59.366;17.970;2024-02-14T10:02:40;-0.80;99.90
71142;DHT22;58808;59.366;17.970;2024-02-14T10:05:06;-0.60;99.90
71142;DHT22;58808;59.366;17.970;2024-02-14T10:07:40;-0.50;99.90
71142;DHT22;58808;59.366;17.970;2024-02-14T10:10:07;-0.70;99.90
71142;DHT22;58808;59.366;17.970;2024-02-14T10:12:32;-0.50;99.90
71142;DHT22;58808;59.366;17.970;2024-02-14T10:14:58;-0.70;99.90
71142;DHT22;58808;59.366;17.970;2024-02-14T10:17:24;-0.60;99.90
71142;DHT22;58808;59.366;17.970;2024-02-14T10:20:00;-0.50;99.90
71142;DHT22;58808;59.366;17.970;2024-02-14T10:22:37;-0.60;99.90
71142;DHT22;58808;59.366;17.970;2024-02-14T10:25:04;-0.60;99.90
71142;DHT22;58808;59.366;17.970;2024-02-14T10:27:37;-0.50;99.90
71142;DHT22;58808;59.366;17.970;2024-02-14T10:30:05;-0.50;99.90
71142;DHT22;58808;59.366;17.970;2024-02-14T10:32:34;-0.30;99.90
71142;DHT22;58808;59.366;17.970;2024-02-14T10:35:00;-0.50;99.90
71142;DHT22;58808;59.366;17.970;2024-02-14T10:37:28;-0.40;99.90
71142;DHT22;58808;59.366;17.970;2024-02-14T10:39:56;-0.40;99.90
71142;DHT22;58808;59.366;17.970;2024-02-14T10:42:23;-0.30;99.90
71142;DHT22;58808;59.366;17.970;2024-02-14T10:44:49;-0.20;99.90
71142;DHT22;58808;59.366;17.970;2024-02-14T10:47:20;-0.30;99.90
71142;DHT22;58808;59.366;17.970;2024-02-14T10:49:49;-0.10;99.90
71142;DHT22;58808;59.366;17.970;2024-02-14T10:52:18;-0.20;99.90
71142;DHT22;58808;59.366;17.970;2024-02-14T10:54:52;-0.20;99.90
71142;DHT22;58808;59.366;17.970;2024-02-14T10:57:24;-0.10;99.90
71142;DHT22;58808;59.366;17.970;2024-02-14T10:59:51;0.10;99.90
71142;DHT22;58808;59.366;17.970;2024-02-14T11:02:18;0.10;99.90
71142;DHT22;58808;59.366;17.970;2024-02-14T11:04:45;0.10;99.90
71142;DHT22;58808;59.366;17.970;2024-02-14T11:07:11;0.10;99.90
71142;DHT22;58808;59.366;17.970;2024-02-14T11:09:37;0.10;99.90
71142;DHT22;58808;59.366;17.970;2024-02-14T11:12:07;-0.10;99.90
71142;DHT22;58808;59.366;17.970;2024-02-14T11:14:34;0.10;99.90
71142;DHT22;58808;59.366;17.970;2024-02-14T11:17:02;0.20;99.90
71142;DHT22;58808;59.366;17.970;2024-02-14T11:19:31;0.00;99.90
71142;DHT22;58808;59.366;17.970;2024-02-14T11:22:21;0.10;99.90
71142;DHT22;58808;59.366;17.970;2024-02-14T11:24:47;0.20;99.90
71142;DHT22;58808;59.366;17.970;2024-02-14T11:27:14;0.20;99.90
71142;DHT22;58808;59.366;17.970;2024-02-14T11:29:40;0.20;99.90
71142;DHT22;58808;59.366;17.970;2024-02-14T11:32:11;0.20;99.90
71142;DHT22;58808;59.366;17.970;2024-02-14T11:34:37;0.30;99.90
71142;DHT22;58808;59.366;17.970;2024-02-14T11:37:03;0.30;99.90
71142;DHT22;58808;59.366;17.970;2024-02-14T11:39:32;0.10;99.90
71142;DHT22;58808;59.366;17.970;2024-02-14T11:41:58;0.30;99.90
71142;DHT22;58808;59.366;17.970;2024-02-14T11:44:25;0.20;99.90
71142;DHT22;58808;59.366;17.970;2024-02-14T11:46:51;0.30;99.90
71142;DHT22;58808;59.366;17.970;2024-02-14T11:49:17;0.30;99.90
71142;DHT22;58808;59.366;17.970;2024-02-14T11:51:44;0.40;99.90
71142;DHT22;58808;59.366;17.970;2024-02-14T11:54:09;0.30;99.90
71142;DHT22;58808;59.366;17.970;2024-02-14T11:56:37;0.50;99.90
71142;DHT22;58808;59.366;17.970;2024-02-14T11:59:07;0.50;99.90
71142;DHT22;58808;59.366;17.970;2024-02-14T12:01:34;0.70;99.90
71142;DHT22;58808;59.366;17.970;2024-02-14T12:04:02;0.70;99.90
71142;DHT22;58808;59.366;17.970;2024-02-14T12:06:34;0.80;99.90
71142;DHT22;58808;59.366;17.970;2024-02-14T12:09:04;0.70;99.90
71142;DHT22;58808;59.366;17.970;2024-02-14T12:11:37;0.80;99.90
71142;DHT22;58808;59.366;17.970;2024-02-14T12:14:05;0.90;99.90
71142;DHT22;58808;59.366;17.970;2024-02-14T12:16:30;0.70;99.90
71142;DHT22;58808;59.366;17.970;2024-02-14T12:19:04;0.90;99.90
71142;DHT22;58808;59.366;17.970;2024-02-14T12:21:37;0.90;99.90
71142;DHT22;58808;59.366;17.970;2024-02-14T12:24:08;0.80;99.90
71142;DHT22;58808;59.366;17.970;2024-02-14T12:26:34;0.80;99.90
71142;DHT22;58808;59.366;17.970;2024-02-14T12:29:04;0.90;99.90
71142;DHT22;58808;59.366;17.970;2024-02-14T12:31:30;1.00;99.90
71142;DHT22;58808;59.366;17.970;2024-02-14T12:34:00;1.00;99.90
71142;DHT22;58808;59.366;17.970;2024-02-14T12:36:30;0.80;99.90
71142;DHT22;58808;59.366;17.970;2024-02-14T12:38:56;1.00;99.90
71142;DHT22;58808;59.366;17.970;2024-02-14T12:41:22;0.80;99.90
71142;DHT22;58808;59.366;17.970;2024-02-14T12:43:55;0.80;99.90
71142;DHT22;58808;59.366;17.970;2024-02-14T12:46:21;1.00;99.90
71142;DHT22;58808;59.366;17.970;2024-02-14T12:48:47;0.80;99.90
71142;DHT22;58808;59.366;17.970;2024-02-14T12:51:16;1.10;99.90
71142;DHT22;58808;59.366;17.970;2024-02-14T12:53:42;0.90;99.90
71142;DHT22;58808;59.366;17.970;2024-02-14T12:56:08;1.10;99.90
71142;DHT22;58808;59.366;17.970;2024-02-14T12:58:34;1.10;99.90
71142;DHT22;58808;59.366;17.970;2024-02-14T13:01:00;1.20;99.90
71142;DHT22;58808;59.366;17.970;2024-02-14T13:03:27;1.00;99.90
71142;DHT22;58808;59.366;17.970;2024-02-14T13:05:54;1.20;99.90
71142;DHT22;58808;59.366;17.970;2024-02-14T13:08:20;1.20;99.90
71142;DHT22;58808;59.366;17.970;2024-02-14T13:10:46;1.00;99.90
71142;DHT22;58808;59.366;17.970;2024-02-14T13:13:12;1.30;99.90
71142;DHT22;58808;59.366;17.970;2024-02-14T13:15:39;1.20;99.90
71142;DHT22;58808;59.366;17.970;2024-02-14T13:18:06;1.30;99.90
71142;DHT22;58808;59.366;17.970;2024-02-14T13:20:31;1.10;99.90
71142;DHT22;58808;59.366;17.970;2024-02-14T13:22:57;1.30;99.90
71142;DHT22;58808;59.366;17.970;2024-02-14T13:25:24;1.30;99.90
71142;DHT22;58808;59.366;17.970;2024-02-14T13:27:49;1.30;99.90
71142;DHT22;58808;59.366;17.970;2024-02-14T13:30:15;1.10;99.90
71142;DHT22;58808;59.366;17.970;2024-02-14T13:32:41;1.20;99.90
71142;DHT22;58808;59.366;17.970;2024-02-14T13:35:07;1.30;99.90
71142;DHT22;58808;59.366;17.970;2024-02-14T13:37:33;1.30;99.90
71142;DHT22;58808;59.366;17.970;2024-02-14T13:40:00;1.30;99.90
71142;DHT22;58808;59.366;17.970;2024-02-14T13:42:26;1.30;99.90
71142;DHT22;58808;59.366;17.970;2024-02-14T13:44:52;1.30;99.90
71142;DHT22;58808;59.366;17.970;2024-02-14T13:47:19;1.30;99.90
71142;DHT22;58808;59.366;17.970;2024-02-14T13:49:46;1.30;99.90
71142;DHT22;58808;59.366;17.970;2024-02-14T13:52:11;1.00;99.90
71142;DHT22;58808;59.366;17.970;2024-02-14T13:54:37;1.10;99.90
71142;DHT22;58808;59.366;17.970;2024-02-14T13:57:03;1.10;99.90
71142;DHT22;58808;59.366;17.970;2024-02-14T13:59:28;1.10;99.90
71142;DHT22;58808;59.366;17.970;2024-02-14T14:01:55;1.30;99.90
71142;DHT22;58808;59.366;17.970;2024-02-14T14:04:21;1.30;99.90
71142;DHT22;58808;59.366;17.970;2024-02-14T14:06:47;1.30;99.90
71142;DHT22;58808;59.366;17.970;2024-02-14T14:09:13;1.10;99.90
71142;DHT22;58808;59.366;17.970;2024-02-14T14:11:39;1.30;99.90
71142;DHT22;58808;59.366;17.970;2024-02-14T14:14:05;1.30;99.90
71142;DHT22;58808;59.366;17.970;2024-02-14T14:16:31;1.20;99.90
71142;DHT22;58808;59.366;17.970;2024-02-14T14:18:58;1.10;99.90
71142;DHT22;58808;59.366;17.970;2024-02-14T14:21:24;1.10;99.90
71142;DHT22;58808;59.366;17.970;2024-02-14T14:23:50;1.00;99.90
71142;DHT22;58808;59.366;17.970;2024-02-14T14:26:16;1.00;99.90
71142;DHT22;58808;59.366;17.970;2024-02-14T14:28:41;1.00;99.90
71142;DHT22;58808;59.366;17.970;2024-02-14T14:31:08;1.10;99.90
71142;DHT22;58808;59.366;17.970;2024-02-14T14:33:37;1.00;99.90
71142;DHT22;58808;59.366;17.970;2024-02-14T14:36:04;1.00;99.90
71142;DHT22;58808;59.366;17.970;2024-02-14T14:38:30;1.00;99.90
71142;DHT22;58808;59.366;17.970;2024-02-14T14:40:56;1.00;99.90
71142;DHT22;58808;59.366;17.970;2024-02-14T14:43:22;1.30;99.90
71142;DHT22;58808;59.366;17.970;2024-02-14T14:45:48;1.30;99.90
71142;DHT22;58808;59.366;17.970;2024-02-14T14:48:15;1.20;99.90
71142;DHT22;58808;59.366;17.970;2024-02-14T14:50:41;1.30;99.90
71142;DHT22;58808;59.366;17.970;2024-02-14T14:53:07;1.20;99.90
71142;DHT22;58808;59.366;17.970;2024-02-14T14:56:02;1.00;99.90
71142;DHT22;58808;59.366;17.970;2024-02-14T14:58:28;1.00;99.90
71142;DHT22;58808;59.366;17.970;2024-02-14T15:00:57;1.10;99.90
71142;DHT22;58808;59.366;17.970;2024-02-14T15:03:26;1.10;99.90
71142;DHT22;58808;59.366;17.970;2024-02-14T15:05:52;1.00;99.90
71142;DHT22;58808;59.366;17.970;2024-02-14T15:08:19;0.90;99.90
71142;DHT22;58808;59.366;17.970;2024-02-14T15:10:51;1.00;99.90
71142;DHT22;58808;59.366;17.970;2024-02-14T15:13:26;1.10;99.90
71142;DHT22;58808;59.366;17.970;2024-02-14T15:15:53;1.00;99.90
71142;DHT22;58808;59.366;17.970;2024-02-14T15:18:18;0.80;99.90